createdAt,value
2023-02-22T00:01:35.950Z,3.70
2023-02-22T00:04:07.052Z,3.70
2023-02-22T00:06:34.162Z,3.70
2023-02-22T00:09:02.537Z,3.70
2023-02-22T00:11:31.464Z,3.70
2023-02-22T00:13:58.394Z,3.70
2023-02-22T00:16:26.502Z,3.60
2023-02-22T00:18:54.273Z,3.60
2023-02-22T00:21:21.652Z,3.40
2023-02-22T00:23:49.569Z,3.40
2023-02-22T00:26:21.958Z,3.40
2023-02-22T00:28:53.649Z,3.50
2023-02-22T00:31:21.691Z,3.70
2023-02-22T00:33:48.668Z,3.70
2023-02-22T00:36:15.776Z,3.60
2023-02-22T00:38:42.744Z,3.50
2023-02-22T00:41:10.319Z,3.50
2023-02-22T00:43:37.185Z,3.50
2023-02-22T00:46:04.633Z,3.60
2023-02-22T00:48:31.421Z,3.50
2023-02-22T00:50:58.165Z,3.40
2023-02-22T00:53:26.115Z,3.50
2023-02-22T00:55:53.750Z,3.50
2023-02-22T00:58:21.185Z,3.60
2023-02-22T01:00:49.286Z,3.50
2023-02-22T01:03:19.132Z,3.40
2023-02-22T01:05:47.031Z,3.30
2023-02-22T01:08:17.869Z,3.30
2023-02-22T01:10:45.236Z,3.30
2023-02-22T01:13:13.176Z,3.20
2023-02-22T01:15:44.777Z,3.20
2023-02-22T01:18:12.935Z,3.20
2023-02-22T01:20:39.915Z,3.30
2023-02-22T01:23:08.146Z,3.30
2023-02-22T01:29:23.432Z,3.20
2023-02-22T01:31:55.591Z,3.20
2023-02-22T01:34:24.205Z,3.20
2023-02-22T01:36:50.934Z,3.20
2023-02-22T01:39:18.166Z,3.30
2023-02-22T01:41:45.770Z,3.20
2023-02-22T01:44:29.208Z,3.20
2023-02-22T01:46:58.081Z,3.30
2023-02-22T01:49:29.619Z,3.30
2023-02-22T01:51:58.882Z,3.20
2023-02-22T01:54:32.254Z,3.20
2023-02-22T01:57:07.505Z,3.30
2023-02-22T01:59:37.851Z,3.30
2023-02-22T02:02:05.384Z,3.20
2023-02-22T02:04:33.472Z,3.10
2023-02-22T02:07:04.119Z,3.10
2023-02-22T02:09:43.565Z,3.00
2023-02-22T02:12:12.529Z,3.00
2023-02-22T02:14:41.699Z,3.00
2023-02-22T02:17:11.746Z,2.90
2023-02-22T02:20:13.170Z,2.80
2023-02-22T02:23:02.875Z,2.80
2023-02-22T02:25:41.674Z,2.80
2023-02-22T02:28:35.163Z,2.80
2023-02-22T02:31:31.054Z,2.90
2023-02-22T02:34:21.882Z,3.00
2023-02-22T02:36:57.351Z,2.90
2023-02-22T02:39:30.786Z,2.80
2023-02-22T02:42:00.749Z,2.30
2023-02-22T02:44:48.738Z,2.20
2023-02-22T02:47:22.106Z,2.30
2023-02-22T02:50:01.014Z,2.50
2023-02-22T02:52:29.156Z,2.70
2023-02-22T02:54:57.169Z,2.70
2023-02-22T02:57:24.728Z,2.70
2023-02-22T02:59:51.621Z,2.60
2023-02-22T03:02:30.074Z,2.60
2023-02-22T03:05:07.601Z,2.60
2023-02-22T03:07:52.440Z,2.50
2023-02-22T03:10:22.366Z,2.50
2023-02-22T03:12:58.590Z,2.50
2023-02-22T03:15:40.569Z,2.60
2023-02-22T03:18:22.880Z,2.50
2023-02-22T03:21:10.393Z,2.50
2023-02-22T03:24:02.900Z,2.40
2023-02-22T03:26:41.467Z,2.40
2023-02-22T03:29:11.318Z,2.40
2023-02-22T03:31:48.625Z,2.40
2023-02-22T03:34:25.838Z,2.40
2023-02-22T03:37:03.927Z,2.50
2023-02-22T03:39:32.368Z,2.40
2023-02-22T03:42:08.813Z,2.00
2023-02-22T03:44:40.230Z,2.10
2023-02-22T03:47:12.897Z,2.10
2023-02-22T03:49:51.422Z,2.20
2023-02-22T03:52:19.250Z,2.00
2023-02-22T03:54:45.990Z,2.20
2023-02-22T03:57:20.313Z,2.30
2023-02-22T03:59:47.548Z,2.30
2023-02-22T04:02:14.265Z,2.30
2023-02-22T04:04:41.047Z,2.40
2023-02-22T04:07:07.780Z,2.40
2023-02-22T04:09:34.459Z,2.40
2023-02-22T04:12:01.182Z,2.40
2023-02-22T04:14:29.547Z,2.40
2023-02-22T04:16:56.471Z,2.40
2023-02-22T04:19:23.157Z,2.20
2023-02-22T04:21:49.828Z,2.10
2023-02-22T04:24:16.540Z,1.80
2023-02-22T04:26:43.360Z,1.80
2023-02-22T04:29:10.258Z,1.90
2023-02-22T04:31:37.117Z,2.00
2023-02-22T04:34:04.193Z,2.10
2023-02-22T04:36:34.461Z,2.20
2023-02-22T04:39:01.820Z,2.10
2023-02-22T04:41:28.622Z,2.00
2023-02-22T04:43:55.347Z,1.70
2023-02-22T04:46:22.087Z,1.70
2023-02-22T04:48:49.180Z,1.80
2023-02-22T04:51:16.543Z,1.90
2023-02-22T04:53:43.332Z,2.00
2023-02-22T04:56:10.055Z,2.00
2023-02-22T04:58:36.840Z,2.10
2023-02-22T05:01:04.044Z,2.10
2023-02-22T05:03:30.853Z,2.20
2023-02-22T05:05:57.589Z,2.20
2023-02-22T05:08:24.277Z,2.20
2023-02-22T05:10:50.994Z,2.10
2023-02-22T05:13:17.673Z,2.10
2023-02-22T05:15:44.403Z,2.00
2023-02-22T05:18:11.083Z,1.80
2023-02-22T05:20:37.895Z,1.90
2023-02-22T05:23:05.611Z,2.00
2023-02-22T05:25:33.610Z,2.10
2023-02-22T05:28:10.661Z,2.10
2023-02-22T05:30:41.112Z,2.00
2023-02-22T05:33:09.092Z,2.00
2023-02-22T05:35:37.128Z,2.00
2023-02-22T05:38:04.752Z,2.00
2023-02-22T05:40:32.069Z,1.90
2023-02-22T05:43:00.700Z,1.80
2023-02-22T05:45:28.528Z,1.90
2023-02-22T05:47:55.690Z,1.90
2023-02-22T05:50:22.906Z,1.90
2023-02-22T05:52:49.745Z,1.90
2023-02-22T05:55:19.066Z,1.90
2023-02-22T05:57:45.905Z,1.80
2023-02-22T06:00:25.102Z,1.80
2023-02-22T06:03:06.485Z,1.80
2023-02-22T06:05:33.267Z,1.80
2023-02-22T06:08:00.674Z,1.80
2023-02-22T06:10:27.914Z,1.80
2023-02-22T06:12:55.120Z,1.80
2023-02-22T06:15:24.034Z,1.60
2023-02-22T06:17:51.982Z,1.10
2023-02-22T06:20:21.451Z,1.20
2023-02-22T06:22:49.503Z,1.30
2023-02-22T06:25:19.331Z,1.40
2023-02-22T06:27:46.101Z,1.50
2023-02-22T06:30:14.001Z,1.40
2023-02-22T06:32:40.726Z,1.40
2023-02-22T06:35:08.731Z,1.60
2023-02-22T06:37:36.188Z,1.70
2023-02-22T06:40:05.687Z,1.70
2023-02-22T06:42:32.952Z,1.70
2023-02-22T06:44:59.957Z,1.90
2023-02-22T06:47:26.707Z,2.00
2023-02-22T06:49:54.980Z,1.80
2023-02-22T06:52:22.744Z,2.00
2023-02-22T06:54:50.170Z,2.10
2023-02-22T06:57:17.600Z,2.20
2023-02-22T06:59:44.516Z,2.00
2023-02-22T07:02:14.844Z,2.10
2023-02-22T07:04:43.415Z,2.20
2023-02-22T07:07:10.811Z,2.30
2023-02-22T07:09:37.880Z,2.40
2023-02-22T07:12:04.648Z,2.60
2023-02-22T07:14:31.508Z,2.60
2023-02-22T07:16:58.222Z,2.50
2023-02-22T07:19:25.150Z,2.60
2023-02-22T07:21:59.349Z,2.70
2023-02-22T07:24:28.519Z,2.80
2023-02-22T07:26:55.488Z,2.90
2023-02-22T07:29:25.125Z,3.00
2023-02-22T07:31:51.951Z,2.60
2023-02-22T07:34:18.765Z,2.60
2023-02-22T07:36:45.454Z,2.70
2023-02-22T07:39:12.227Z,2.90
2023-02-22T07:41:38.904Z,3.00
2023-02-22T07:44:05.782Z,3.20
2023-02-22T07:46:32.555Z,3.10
2023-02-22T07:48:59.290Z,3.00
2023-02-22T07:51:27.052Z,3.20
2023-02-22T07:53:53.835Z,3.20
2023-02-22T07:56:20.667Z,3.20
2023-02-22T07:58:47.643Z,3.30
2023-02-22T08:01:14.392Z,3.50
2023-02-22T08:03:41.353Z,3.70
2023-02-22T08:06:08.674Z,3.90
2023-02-22T08:08:35.352Z,4.10
2023-02-22T08:11:02.471Z,4.20
2023-02-22T08:13:29.324Z,4.40
2023-02-22T08:15:56.186Z,4.40
2023-02-22T08:18:24.135Z,4.40
2023-02-22T08:20:52.297Z,4.40
2023-02-22T08:23:21.171Z,4.50
2023-02-22T08:25:48.080Z,4.40
2023-02-22T08:28:17.820Z,4.60
2023-02-22T08:30:44.557Z,4.40
2023-02-22T08:33:19.130Z,4.60
2023-02-22T08:35:49.517Z,4.70
2023-02-22T08:38:23.553Z,5.00
2023-02-22T08:40:50.586Z,5.10
2023-02-22T08:43:19.052Z,5.30
2023-02-22T08:45:46.664Z,5.50
2023-02-22T08:48:15.334Z,5.70
2023-02-22T08:50:42.244Z,5.80
2023-02-22T08:53:10.195Z,6.00
2023-02-22T08:55:39.045Z,6.00
2023-02-22T08:58:09.244Z,6.00
2023-02-22T09:00:38.888Z,6.10
2023-02-22T09:03:08.299Z,6.20
2023-02-22T09:05:35.178Z,6.30
2023-02-22T09:08:02.046Z,6.60
2023-02-22T09:10:31.884Z,6.60
2023-02-22T09:13:00.840Z,6.40
2023-02-22T09:15:28.364Z,6.40
2023-02-22T09:17:55.791Z,6.70
2023-02-22T09:20:24.347Z,6.90
2023-02-22T09:22:51.492Z,7.10
2023-02-22T09:25:20.884Z,7.30
2023-02-22T09:27:52.577Z,7.30
2023-02-22T09:30:32.781Z,7.20
2023-02-22T09:33:11.870Z,7.20
2023-02-22T09:35:42.389Z,7.40
2023-02-22T09:38:10.349Z,7.50
2023-02-22T09:40:45.070Z,7.50
2023-02-22T09:43:20.934Z,7.60
2023-02-22T09:46:06.071Z,7.60
2023-02-22T09:48:51.444Z,7.70
2023-02-22T09:51:20.590Z,7.60
2023-02-22T09:53:50.703Z,7.80
2023-02-22T09:56:19.743Z,7.90
2023-02-22T09:58:52.731Z,7.90
2023-02-22T10:01:27.232Z,8.10
2023-02-22T10:04:19.164Z,8.20
2023-02-22T10:07:15.271Z,8.30
2023-02-22T10:09:43.697Z,8.30
2023-02-22T10:12:50.389Z,8.50
2023-02-22T10:15:44.714Z,8.50
2023-02-22T10:18:39.528Z,8.60
2023-02-22T10:21:31.141Z,8.70
2023-02-22T10:24:38.542Z,8.70
2023-02-22T10:27:09.492Z,8.90
2023-02-22T10:29:46.588Z,9.10
2023-02-22T10:32:25.979Z,9.20
2023-02-22T10:34:54.727Z,9.30
2023-02-22T10:37:25.457Z,9.40
2023-02-22T10:40:18.158Z,9.50
2023-02-22T10:42:45.087Z,9.70
2023-02-22T10:45:32.762Z,9.70
2023-02-22T10:48:03.526Z,9.70
2023-02-22T10:50:33.698Z,9.60
2023-02-22T10:53:00.482Z,9.80
2023-02-22T10:55:27.452Z,9.90
2023-02-22T10:58:04.700Z,10.00
2023-02-22T11:00:37.306Z,10.20
2023-02-22T11:03:18.224Z,10.40
2023-02-22T11:05:44.922Z,10.50
2023-02-22T11:08:33.058Z,10.60
2023-02-22T11:11:20.324Z,10.90
2023-02-22T11:13:57.497Z,11.10
2023-02-22T11:16:33.043Z,11.60
2023-02-22T11:19:02.885Z,11.80
2023-02-22T11:21:32.383Z,12.00
2023-02-22T11:24:11.311Z,12.20
2023-02-22T11:26:43.743Z,12.30
2023-02-22T11:29:34.052Z,12.50
2023-02-22T11:32:14.125Z,12.40
2023-02-22T11:34:45.216Z,12.50
2023-02-22T11:37:25.854Z,12.70
2023-02-22T11:40:24.979Z,12.60
2023-02-22T11:43:16.025Z,12.60
2023-02-22T11:46:05.506Z,12.50
2023-02-22T11:48:36.830Z,12.30
2023-02-22T11:51:16.516Z,12.10
2023-02-22T11:53:57.030Z,11.90
2023-02-22T11:56:49.162Z,11.80
2023-02-22T11:59:41.433Z,11.90
2023-02-22T12:02:24.288Z,11.90
2023-02-22T12:05:10.975Z,12.00
2023-02-22T12:08:05.306Z,12.20
2023-02-22T12:10:42.896Z,12.80
2023-02-22T12:13:26.182Z,13.00
2023-02-22T12:16:01.931Z,13.40
2023-02-22T12:18:54.959Z,13.30
2023-02-22T12:21:24.693Z,13.50
2023-02-22T12:23:55.044Z,13.10
2023-02-22T12:26:36.556Z,12.70
2023-02-22T12:29:26.156Z,12.90
2023-02-22T12:32:09.744Z,12.80
2023-02-22T12:34:43.582Z,12.90
2023-02-22T12:37:17.994Z,13.10
2023-02-22T12:39:53.966Z,13.10
2023-02-22T12:42:46.776Z,13.20
2023-02-22T12:45:27.110Z,13.20
2023-02-22T12:48:07.210Z,13.00
2023-02-22T12:50:36.536Z,12.90
2023-02-22T12:53:20.099Z,12.90
2023-02-22T12:56:00.206Z,12.90
2023-02-22T12:58:56.588Z,12.80
2023-02-22T13:01:30.002Z,12.80
2023-02-22T13:03:56.906Z,12.60
2023-02-22T13:06:29.653Z,13.10
2023-02-22T13:09:01.891Z,13.40
2023-02-22T13:12:02.724Z,13.20
2023-02-22T13:14:52.601Z,13.70
2023-02-22T13:17:26.770Z,14.20
2023-02-22T13:20:11.698Z,14.50
2023-02-22T13:22:50.070Z,15.10
2023-02-22T13:25:21.831Z,15.10
2023-02-22T13:28:13.382Z,15.20
2023-02-22T13:31:15.297Z,15.50
2023-02-22T13:34:01.191Z,15.50
2023-02-22T13:36:38.406Z,15.50
2023-02-22T13:39:27.984Z,15.40
2023-02-22T13:42:20.448Z,15.50
2023-02-22T13:45:08.227Z,15.30
2023-02-22T13:48:05.153Z,15.10
2023-02-22T13:51:03.182Z,15.10
2023-02-22T13:53:37.346Z,15.10
2023-02-22T13:56:04.531Z,15.00
2023-02-22T13:58:31.403Z,15.00
2023-02-22T14:00:59.776Z,15.00
2023-02-22T14:03:36.583Z,15.00
2023-02-22T14:06:05.497Z,15.60
2023-02-22T14:08:33.692Z,16.40
2023-02-22T14:11:02.212Z,17.10
2023-02-22T14:13:30.504Z,17.70
2023-02-22T14:16:00.410Z,18.00
2023-02-22T14:18:42.089Z,17.50
2023-02-22T14:21:14.322Z,16.90
2023-02-22T14:23:43.268Z,17.70
2023-02-22T14:26:26.668Z,18.20
2023-02-22T14:29:08.618Z,18.20
2023-02-22T14:31:43.517Z,17.90
2023-02-22T14:34:12.072Z,17.80
2023-02-22T14:36:41.857Z,17.10
2023-02-22T14:39:21.816Z,17.00
2023-02-22T14:42:04.417Z,16.60
2023-02-22T14:44:39.573Z,16.20
2023-02-22T14:47:10.094Z,16.00
2023-02-22T14:49:41.921Z,16.00
2023-02-22T14:52:19.663Z,15.90
2023-02-22T14:55:04.450Z,15.90
2023-02-22T14:58:06.773Z,15.90
2023-02-22T15:00:42.637Z,15.70
2023-02-22T15:03:32.941Z,15.50
2023-02-22T15:06:22.939Z,15.30
2023-02-22T15:09:23.534Z,15.10
2023-02-22T15:11:55.176Z,15.10
2023-02-22T15:14:26.709Z,15.30
2023-02-22T15:16:57.248Z,15.30
2023-02-22T15:19:37.223Z,15.20
2023-02-22T15:22:06.526Z,15.20
2023-02-22T15:24:36.214Z,15.30
2023-02-22T15:27:23.257Z,15.00
2023-02-22T15:29:56.578Z,14.80
2023-02-22T15:32:36.614Z,14.70
2023-02-22T15:35:29.560Z,14.70
2023-02-22T15:38:11.572Z,14.60
2023-02-22T15:40:42.956Z,14.60
2023-02-22T15:43:28.484Z,14.50
2023-02-22T15:45:56.670Z,14.20
2023-02-22T15:48:26.177Z,13.90
2023-02-22T15:51:10.630Z,13.80
2023-02-22T15:53:46.877Z,13.70
2023-02-22T15:56:23.816Z,13.80
2023-02-22T15:58:50.784Z,13.40
2023-02-22T16:01:19.949Z,13.20
2023-02-22T16:03:50.046Z,13.20
2023-02-22T16:06:35.174Z,13.10
2023-02-22T16:09:09.322Z,13.00
2023-02-22T16:11:43.801Z,12.90
2023-02-22T16:14:42.874Z,12.90
2023-02-22T16:17:30.865Z,12.80
2023-02-22T16:19:59.903Z,12.80
2023-02-22T16:22:37.842Z,12.80
2023-02-22T16:25:19.685Z,12.60
2023-02-22T16:27:59.872Z,12.50
2023-02-22T16:30:32.418Z,12.40
2023-02-22T16:33:00.998Z,12.30
2023-02-22T16:35:29.495Z,12.20
2023-02-22T16:38:00.321Z,12.10
2023-02-22T16:40:39.816Z,12.00
2023-02-22T16:43:09.813Z,11.90
2023-02-22T16:45:36.500Z,12.00
2023-02-22T16:48:20.850Z,11.80
2023-02-22T16:50:53.055Z,11.70
2023-02-22T16:53:23.834Z,11.70
2023-02-22T16:55:57.561Z,11.80
2023-02-22T16:58:28.647Z,11.60
2023-02-22T17:00:57.397Z,11.40
2023-02-22T17:03:25.917Z,11.40
2023-02-22T17:05:53.096Z,11.30
2023-02-22T17:08:19.789Z,11.20
2023-02-22T17:10:46.530Z,11.10
2023-02-22T17:13:23.616Z,11.00
2023-02-22T17:15:51.957Z,10.90
2023-02-22T17:18:24.082Z,10.80
2023-02-22T17:20:52.464Z,10.60
2023-02-22T17:23:20.195Z,10.50
2023-02-22T17:26:02.335Z,10.50
2023-02-22T17:28:30.020Z,10.20
2023-02-22T17:31:02.442Z,10.00
2023-02-22T17:33:32.922Z,9.90
2023-02-22T17:36:02.662Z,9.80
2023-02-22T17:38:30.769Z,9.70
2023-02-22T17:40:59.322Z,9.60
2023-02-22T17:43:27.932Z,9.50
2023-02-22T17:45:55.137Z,9.30
2023-02-22T17:48:24.201Z,9.30
2023-02-22T17:50:51.962Z,9.30
2023-02-22T17:53:22.522Z,9.20
2023-02-22T17:55:49.715Z,9.10
2023-02-22T18:02:04.284Z,9.00
2023-02-22T18:04:34.741Z,9.00
2023-02-22T18:07:01.497Z,8.90
2023-02-22T18:09:28.145Z,8.90
2023-02-22T18:11:54.748Z,8.90
2023-02-22T18:14:21.461Z,8.80
2023-02-22T18:16:48.068Z,8.80
2023-02-22T18:19:20.441Z,8.80
2023-02-22T18:21:48.714Z,8.70
2023-02-22T18:24:15.379Z,8.70
2023-02-22T18:26:42.091Z,8.70
2023-02-22T18:29:12.285Z,8.60
2023-02-22T18:31:39.117Z,8.60
2023-02-22T18:34:05.873Z,8.60
2023-02-22T18:36:32.547Z,8.60
2023-02-22T18:38:59.256Z,8.40
2023-02-22T18:41:26.481Z,8.40
2023-02-22T18:43:55.666Z,8.40
2023-02-22T18:46:24.355Z,8.40
2023-02-22T18:48:54.271Z,8.40
2023-02-22T18:51:21.358Z,8.30
2023-02-22T18:53:49.844Z,8.30
2023-02-22T18:56:21.576Z,8.30
2023-02-22T18:58:53.230Z,8.30
2023-02-22T19:01:20.651Z,8.30
2023-02-22T19:03:47.392Z,8.30
2023-02-22T19:06:16.477Z,8.20
2023-02-22T19:08:45.071Z,8.20
2023-02-22T19:11:17.863Z,8.20
2023-02-22T19:13:48.988Z,8.20
2023-02-22T19:16:19.758Z,8.20
2023-02-22T19:18:47.658Z,8.20
2023-02-22T19:21:14.942Z,8.10
2023-02-22T19:23:46.134Z,8.00
2023-02-22T19:26:14.747Z,8.10
2023-02-22T19:28:41.432Z,8.20
2023-02-22T19:31:19.349Z,8.20
2023-02-22T19:33:48.036Z,8.20
2023-02-22T19:36:15.505Z,8.10
2023-02-22T19:38:42.566Z,8.10
2023-02-22T19:41:12.404Z,8.10
2023-02-22T19:43:39.457Z,8.10
2023-02-22T19:46:07.621Z,8.20
2023-02-22T19:48:34.580Z,8.30
2023-02-22T19:51:06.707Z,8.50
2023-02-22T19:53:34.642Z,8.50
2023-02-22T19:56:11.720Z,8.60
2023-02-22T19:58:40.686Z,8.60
2023-02-22T20:01:22.972Z,8.60
2023-02-22T20:03:54.295Z,8.70
2023-02-22T20:06:23.144Z,8.60
2023-02-22T20:08:51.155Z,8.70
2023-02-22T20:11:18.232Z,8.60
2023-02-22T20:13:45.388Z,8.40
2023-02-22T20:16:15.636Z,8.30
2023-02-22T20:18:43.875Z,8.30
2023-02-22T20:21:14.015Z,8.20
2023-02-22T20:23:44.189Z,8.10
2023-02-22T20:26:31.561Z,8.00
2023-02-22T20:28:59.581Z,8.00
2023-02-22T20:31:26.676Z,8.00
2023-02-22T20:33:55.710Z,8.00
2023-02-22T20:36:22.997Z,8.00
2023-02-22T20:38:54.325Z,7.90
2023-02-22T20:41:28.076Z,7.80
2023-02-22T20:43:56.214Z,7.80
2023-02-22T20:46:27.726Z,7.80
2023-02-22T20:48:55.944Z,7.70
2023-02-22T20:51:23.400Z,7.70
2023-02-22T20:53:50.246Z,7.60
2023-02-22T20:56:22.710Z,7.50
2023-02-22T20:58:49.620Z,7.50
2023-02-22T21:01:19.595Z,7.40
2023-02-22T21:03:46.836Z,7.30
2023-02-22T21:06:15.722Z,7.30
2023-02-22T21:08:43.691Z,7.50
2023-02-22T21:11:15.686Z,7.50
2023-02-22T21:13:42.460Z,7.50
2023-02-22T21:16:15.446Z,7.50
2023-02-22T21:18:42.129Z,7.50
2023-02-22T21:21:12.634Z,7.50
2023-02-22T21:23:42.893Z,7.40
2023-02-22T21:26:15.646Z,7.40
2023-02-22T21:28:50.845Z,7.40
2023-02-22T21:31:20.333Z,7.40
2023-02-22T21:33:50.464Z,7.40
2023-02-22T21:36:18.109Z,7.30
2023-02-22T21:38:53.357Z,7.30
2023-02-22T21:41:21.571Z,7.30
2023-02-22T21:43:52.151Z,7.30
2023-02-22T21:46:19.533Z,7.30
2023-02-22T21:48:48.910Z,7.30
2023-02-22T21:51:25.351Z,7.30
2023-02-22T21:53:54.522Z,7.20
2023-02-22T21:56:28.428Z,7.30
2023-02-22T21:59:00.135Z,7.30
2023-02-22T22:01:28.651Z,7.30
2023-02-22T22:03:56.418Z,7.50
2023-02-22T22:06:23.014Z,7.60
2023-02-22T22:08:50.401Z,7.60
2023-02-22T22:11:17.899Z,7.60
2023-02-22T22:13:44.808Z,7.50
2023-02-22T22:16:14.794Z,7.50
2023-02-22T22:18:43.124Z,7.40
2023-02-22T22:21:22.744Z,7.40
2023-02-22T22:23:50.741Z,7.40
2023-02-22T22:26:20.147Z,7.30
2023-02-22T22:28:56.088Z,7.30
2023-02-22T22:31:26.006Z,7.20
2023-02-22T22:33:53.992Z,7.20
2023-02-22T22:36:21.999Z,7.10
2023-02-22T22:38:49.492Z,7.00
2023-02-22T22:41:18.827Z,7.00
2023-02-22T22:43:48.743Z,7.00
2023-02-22T22:46:17.743Z,7.00
2023-02-22T22:48:46.751Z,7.10
2023-02-22T22:51:18.267Z,7.10
2023-02-22T22:53:46.933Z,7.00
2023-02-22T22:56:25.960Z,6.90
2023-02-22T22:58:57.571Z,6.90
2023-02-22T23:01:27.352Z,6.90
2023-02-22T23:03:59.286Z,6.90
2023-02-22T23:06:33.316Z,6.90
2023-02-22T23:09:00.068Z,6.80
2023-02-22T23:11:28.861Z,6.60
2023-02-22T23:13:56.478Z,6.60
2023-02-22T23:16:24.652Z,6.60
2023-02-22T23:18:51.506Z,6.60
2023-02-22T23:21:19.957Z,6.70
2023-02-22T23:23:51.520Z,6.60
2023-02-22T23:26:18.427Z,6.60
2023-02-22T23:28:47.730Z,6.70
2023-02-22T23:31:17.363Z,6.70
2023-02-22T23:33:48.108Z,6.70
2023-02-22T23:36:16.090Z,6.70
2023-02-22T23:38:43.521Z,6.60
2023-02-22T23:41:12.911Z,6.50
2023-02-22T23:43:40.758Z,6.50
2023-02-22T23:46:10.841Z,6.50
2023-02-22T23:48:47.026Z,6.60
2023-02-22T23:51:16.265Z,6.70
2023-02-22T23:53:46.002Z,6.70
2023-02-22T23:56:20.980Z,6.70
2023-02-22T23:58:52.357Z,6.70
